sensor_id;sensor_type;location;lat;lon;timestamp;temperature;humidity
70234;DHT22;57622;42.630;23.378;2022-08-19T00:01:19;23.02;53.60
70234;DHT22;57622;42.630;23.378;2022-08-19T00:03:44;23.05;53.69
70234;DHT22;57622;42.630;23.378;2022-08-19T00:06:10;23.28;53.02
70234;DHT22;57622;42.630;23.378;2022-08-19T00:08:36;23.39;52.73
70234;DHT22;57622;42.630;23.378;2022-08-19T00:11:02;23.49;52.45
70234;DHT22;57622;42.630;23.378;2022-08-19T00:13:27;23.45;52.39
70234;DHT22;57622;42.630;23.378;2022-08-19T00:15:54;23.50;52.33
70234;DHT22;57622;42.630;23.378;2022-08-19T00:18:20;23.60;51.90
70234;DHT22;57622;42.630;23.378;2022-08-19T00:20:46;23.71;51.87
70234;DHT22;57622;42.630;23.378;2022-08-19T00:23:11;23.96;51.10
70234;DHT22;57622;42.630;23.378;2022-08-19T00:25:37;24.11;51.03
70234;DHT22;57622;42.630;23.378;2022-08-19T00:28:03;23.70;52.43
70234;DHT22;57622;42.630;23.378;2022-08-19T00:30:29;23.71;51.95
70234;DHT22;57622;42.630;23.378;2022-08-19T00:32:56;23.38;52.82
70234;DHT22;57622;42.630;23.378;2022-08-19T00:35:22;23.43;52.60
70234;DHT22;57622;42.630;23.378;2022-08-19T00:37:49;23.49;52.53
70234;DHT22;57622;42.630;23.378;2022-08-19T00:40:15;23.60;51.94
70234;DHT22;57622;42.630;23.378;2022-08-19T00:42:44;23.60;52.07
70234;DHT22;57622;42.630;23.378;2022-08-19T00:45:22;23.49;52.40
70234;DHT22;57622;42.630;23.378;2022-08-19T00:47:48;23.58;52.08
70234;DHT22;57622;42.630;23.378;2022-08-19T00:50:17;23.43;52.47
70234;DHT22;57622;42.630;23.378;2022-08-19T00:52:45;23.31;52.92
70234;DHT22;57622;42.630;23.378;2022-08-19T00:55:25;23.32;52.72
70234;DHT22;57622;42.630;23.378;2022-08-19T00:57:56;23.32;52.70
70234;DHT22;57622;42.630;23.378;2022-08-19T01:00:24;23.35;52.64
70234;DHT22;57622;42.630;23.378;2022-08-19T01:02:53;23.48;52.43
70234;DHT22;57622;42.630;23.378;2022-08-19T01:05:22;23.52;52.25
70234;DHT22;57622;42.630;23.378;2022-08-19T01:07:49;23.39;52.40
70234;DHT22;57622;42.630;23.378;2022-08-19T01:10:18;23.32;52.47
70234;DHT22;57622;42.630;23.378;2022-08-19T01:12:46;23.11;52.93
70234;DHT22;57622;42.630;23.378;2022-08-19T01:15:15;23.26;52.65
70234;DHT22;57622;42.630;23.378;2022-08-19T01:17:42;23.38;52.26
70234;DHT22;57622;42.630;23.378;2022-08-19T01:20:18;23.45;52.07
70234;DHT22;57622;42.630;23.378;2022-08-19T01:22:51;23.52;52.32
70234;DHT22;57622;42.630;23.378;2022-08-19T01:25:20;23.53;52.74
70234;DHT22;57622;42.630;23.378;2022-08-19T01:27:49;23.60;52.17
70234;DHT22;57622;42.630;23.378;2022-08-19T01:30:19;23.65;52.17
70234;DHT22;57622;42.630;23.378;2022-08-19T01:32:45;23.58;52.09
70234;DHT22;57622;42.630;23.378;2022-08-19T01:35:12;23.73;51.92
70234;DHT22;57622;42.630;23.378;2022-08-19T01:37:59;23.74;51.53
70234;DHT22;57622;42.630;23.378;2022-08-19T01:40:28;23.76;52.30
70234;DHT22;57622;42.630;23.378;2022-08-19T01:42:54;23.66;52.08
70234;DHT22;57622;42.630;23.378;2022-08-19T01:45:22;23.70;52.60
70234;DHT22;57622;42.630;23.378;2022-08-19T01:47:48;23.66;52.66
70234;DHT22;57622;42.630;23.378;2022-08-19T01:50:14;23.46;52.66
70234;DHT22;57622;42.630;23.378;2022-08-19T01:52:41;23.33;53.12
70234;DHT22;57622;42.630;23.378;2022-08-19T01:55:11;22.95;54.06
70234;DHT22;57622;42.630;23.378;2022-08-19T01:57:41;22.36;55.61
70234;DHT22;57622;42.630;23.378;2022-08-19T02:00:09;22.70;55.12
70234;DHT22;57622;42.630;23.378;2022-08-19T02:02:35;22.70;54.97
70234;DHT22;57622;42.630;23.378;2022-08-19T02:05:00;22.88;54.22
70234;DHT22;57622;42.630;23.378;2022-08-19T02:07:26;23.08;54.07
70234;DHT22;57622;42.630;23.378;2022-08-19T02:09:53;23.22;53.42
70234;DHT22;57622;42.630;23.378;2022-08-19T02:12:20;23.19;53.93
70234;DHT22;57622;42.630;23.378;2022-08-19T02:14:46;23.21;53.96
70234;DHT22;57622;42.630;23.378;2022-08-19T02:17:11;23.18;53.52
70234;DHT22;57622;42.630;23.378;2022-08-19T02:19:37;23.31;53.35
70234;DHT22;57622;42.630;23.378;2022-08-19T02:22:02;23.01;54.31
70234;DHT22;57622;42.630;23.378;2022-08-19T02:24:28;22.75;54.87
70234;DHT22;57622;42.630;23.378;2022-08-19T02:26:54;22.57;55.43
70234;DHT22;57622;42.630;23.378;2022-08-19T02:29:19;22.57;55.65
70234;DHT22;57622;42.630;23.378;2022-08-19T02:31:45;22.65;54.92
70234;DHT22;57622;42.630;23.378;2022-08-19T02:34:10;22.75;54.97
70234;DHT22;57622;42.630;23.378;2022-08-19T02:36:36;22.84;54.56
70234;DHT22;57622;42.630;23.378;2022-08-19T02:39:02;22.98;54.88
70234;DHT22;57622;42.630;23.378;2022-08-19T02:41:30;23.05;54.47
70234;DHT22;57622;42.630;23.378;2022-08-19T02:43:57;23.15;53.22
70234;DHT22;57622;42.630;23.378;2022-08-19T02:46:27;23.14;54.04
70234;DHT22;57622;42.630;23.378;2022-08-19T02:48:56;22.87;53.95
70234;DHT22;57622;42.630;23.378;2022-08-19T02:51:28;22.33;55.48
70234;DHT22;57622;42.630;23.378;2022-08-19T02:53:55;22.39;56.01
70234;DHT22;57622;42.630;23.378;2022-08-19T02:56:22;22.46;55.04
70234;DHT22;57622;42.630;23.378;2022-08-19T02:58:49;22.63;54.64
70234;DHT22;57622;42.630;23.378;2022-08-19T03:01:25;22.65;55.14
70234;DHT22;57622;42.630;23.378;2022-08-19T03:03:51;22.44;55.27
70234;DHT22;57622;42.630;23.378;2022-08-19T03:06:17;22.09;56.31
70234;DHT22;57622;42.630;23.378;2022-08-19T03:08:44;22.23;56.40
70234;DHT22;57622;42.630;23.378;2022-08-19T03:11:37;22.50;55.47
70234;DHT22;57622;42.630;23.378;2022-08-19T03:14:04;22.52;55.44
70234;DHT22;57622;42.630;23.378;2022-08-19T03:16:31;22.57;55.15
70234;DHT22;57622;42.630;23.378;2022-08-19T03:18:57;22.63;55.41
70234;DHT22;57622;42.630;23.378;2022-08-19T03:21:28;22.71;54.67
70234;DHT22;57622;42.630;23.378;2022-08-19T03:23:55;22.78;54.64
70234;DHT22;57622;42.630;23.378;2022-08-19T03:26:21;22.83;54.45
70234;DHT22;57622;42.630;23.378;2022-08-19T03:28:46;22.73;54.96
70234;DHT22;57622;42.630;23.378;2022-08-19T03:31:16;22.77;54.60
70234;DHT22;57622;42.630;23.378;2022-08-19T03:33:43;22.49;55.17
70234;DHT22;57622;42.630;23.378;2022-08-19T03:36:10;22.39;55.41
70234;DHT22;57622;42.630;23.378;2022-08-19T03:38:44;22.19;55.98
70234;DHT22;57622;42.630;23.378;2022-08-19T03:41:15;22.16;55.88
70234;DHT22;57622;42.630;23.378;2022-08-19T03:43:42;22.09;55.93
70234;DHT22;57622;42.630;23.378;2022-08-19T03:46:11;22.20;55.90
70234;DHT22;57622;42.630;23.378;2022-08-19T03:48:39;22.17;55.85
70234;DHT22;57622;42.630;23.378;2022-08-19T03:51:06;22.05;56.02
70234;DHT22;57622;42.630;23.378;2022-08-19T03:53:33;21.98;56.37
70234;DHT22;57622;42.630;23.378;2022-08-19T03:55:59;22.01;56.34
70234;DHT22;57622;42.630;23.378;2022-08-19T03:58:26;22.22;55.58
70234;DHT22;57622;42.630;23.378;2022-08-19T04:00:54;22.08;56.07
70234;DHT22;57622;42.630;23.378;2022-08-19T04:03:21;22.13;56.10
70234;DHT22;57622;42.630;23.378;2022-08-19T04:05:46;22.25;55.78
70234;DHT22;57622;42.630;23.378;2022-08-19T04:08:13;22.40;55.29
70234;DHT22;57622;42.630;23.378;2022-08-19T04:10:47;22.12;55.89
70234;DHT22;57622;42.630;23.378;2022-08-19T04:13:14;21.99;55.90
70234;DHT22;57622;42.630;23.378;2022-08-19T04:15:41;21.89;56.40
70234;DHT22;57622;42.630;23.378;2022-08-19T04:18:10;21.94;56.45
70234;DHT22;57622;42.630;23.378;2022-08-19T04:20:44;22.01;56.31
70234;DHT22;57622;42.630;23.378;2022-08-19T04:23:11;21.94;56.70
70234;DHT22;57622;42.630;23.378;2022-08-19T04:25:41;21.81;57.09
70234;DHT22;57622;42.630;23.378;2022-08-19T04:28:08;21.92;57.15
70234;DHT22;57622;42.630;23.378;2022-08-19T04:30:49;21.91;57.15
70234;DHT22;57622;42.630;23.378;2022-08-19T04:33:17;21.77;57.79
70234;DHT22;57622;42.630;23.378;2022-08-19T04:35:46;21.85;57.78
70234;DHT22;57622;42.630;23.378;2022-08-19T04:38:13;21.86;57.78
70234;DHT22;57622;42.630;23.378;2022-08-19T04:40:46;22.05;57.28
70234;DHT22;57622;42.630;23.378;2022-08-19T04:43:32;22.19;56.98
70234;DHT22;57622;42.630;23.378;2022-08-19T04:45:58;22.30;56.78
70234;DHT22;57622;42.630;23.378;2022-08-19T04:48:31;22.30;57.11
70234;DHT22;57622;42.630;23.378;2022-08-19T04:50:57;22.28;57.31
70234;DHT22;57622;42.630;23.378;2022-08-19T04:53:28;22.36;57.33
70234;DHT22;57622;42.630;23.378;2022-08-19T04:55:56;22.33;57.35
70234;DHT22;57622;42.630;23.378;2022-08-19T04:58:22;22.28;57.60
70234;DHT22;57622;42.630;23.378;2022-08-19T05:00:48;22.35;57.56
70234;DHT22;57622;42.630;23.378;2022-08-19T05:03:14;22.30;57.55
70234;DHT22;57622;42.630;23.378;2022-08-19T05:05:43;22.35;57.65
70234;DHT22;57622;42.630;23.378;2022-08-19T05:08:09;22.50;57.00
70234;DHT22;57622;42.630;23.378;2022-08-19T05:10:35;22.77;56.66
70234;DHT22;57622;42.630;23.378;2022-08-19T05:13:01;22.86;56.39
70234;DHT22;57622;42.630;23.378;2022-08-19T05:15:27;23.01;56.15
70234;DHT22;57622;42.630;23.378;2022-08-19T05:17:52;23.15;55.69
70234;DHT22;57622;42.630;23.378;2022-08-19T05:20:38;23.32;55.34
70234;DHT22;57622;42.630;23.378;2022-08-19T05:23:22;23.35;55.39
70234;DHT22;57622;42.630;23.378;2022-08-19T05:25:47;23.49;55.24
70234;DHT22;57622;42.630;23.378;2022-08-19T05:28:13;23.53;54.93
70234;DHT22;57622;42.630;23.378;2022-08-19T05:30:38;23.69;54.66
70234;DHT22;57622;42.630;23.378;2022-08-19T05:33:07;23.80;54.37
70234;DHT22;57622;42.630;23.378;2022-08-19T05:35:36;23.94;54.11
70234;DHT22;57622;42.630;23.378;2022-08-19T05:38:02;24.08;53.82
70234;DHT22;57622;42.630;23.378;2022-08-19T05:40:28;24.16;53.73
70234;DHT22;57622;42.630;23.378;2022-08-19T05:42:53;24.27;53.43
70234;DHT22;57622;42.630;23.378;2022-08-19T05:45:20;24.35;53.54
70234;DHT22;57622;42.630;23.378;2022-08-19T05:47:47;24.49;53.72
70234;DHT22;57622;42.630;23.378;2022-08-19T05:50:12;24.55;53.19
70234;DHT22;57622;42.630;23.378;2022-08-19T05:52:38;24.65;52.83
70234;DHT22;57622;42.630;23.378;2022-08-19T05:55:04;24.78;53.16
70234;DHT22;57622;42.630;23.378;2022-08-19T05:57:30;24.82;53.25
70234;DHT22;57622;42.630;23.378;2022-08-19T05:59:57;24.89;53.10
70234;DHT22;57622;42.630;23.378;2022-08-19T06:02:26;24.97;53.32
70234;DHT22;57622;42.630;23.378;2022-08-19T06:04:52;25.12;53.15
70234;DHT22;57622;42.630;23.378;2022-08-19T06:07:18;25.00;53.16
70234;DHT22;57622;42.630;23.378;2022-08-19T06:09:44;25.09;53.73
70234;DHT22;57622;42.630;23.378;2022-08-19T06:12:10;25.24;53.28
70234;DHT22;57622;42.630;23.378;2022-08-19T06:14:36;25.37;52.09
70234;DHT22;57622;42.630;23.378;2022-08-19T06:17:02;25.40;51.34
70234;DHT22;57622;42.630;23.378;2022-08-19T06:19:29;25.44;51.28
70234;DHT22;57622;42.630;23.378;2022-08-19T06:21:56;25.60;50.93
70234;DHT22;57622;42.630;23.378;2022-08-19T06:24:24;25.70;50.09
70234;DHT22;57622;42.630;23.378;2022-08-19T06:26:53;25.85;49.85
70234;DHT22;57622;42.630;23.378;2022-08-19T06:29:20;25.94;49.38
70234;DHT22;57622;42.630;23.378;2022-08-19T06:31:51;26.02;49.02
70234;DHT22;57622;42.630;23.378;2022-08-19T06:34:18;25.96;49.29
70234;DHT22;57622;42.630;23.378;2022-08-19T06:36:49;25.98;49.44
70234;DHT22;57622;42.630;23.378;2022-08-19T06:39:18;26.04;49.74
70234;DHT22;57622;42.630;23.378;2022-08-19T06:41:47;26.19;50.28
70234;DHT22;57622;42.630;23.378;2022-08-19T06:44:13;26.43;50.35
70234;DHT22;57622;42.630;23.378;2022-08-19T06:46:40;26.59;49.51
70234;DHT22;57622;42.630;23.378;2022-08-19T06:49:06;26.69;49.45
70234;DHT22;57622;42.630;23.378;2022-08-19T06:51:35;26.80;49.56
70234;DHT22;57622;42.630;23.378;2022-08-19T06:54:01;26.87;49.44
70234;DHT22;57622;42.630;23.378;2022-08-19T06:56:29;26.94;49.07
70234;DHT22;57622;42.630;23.378;2022-08-19T06:58:57;27.04;48.70
70234;DHT22;57622;42.630;23.378;2022-08-19T07:01:23;27.18;48.65
70234;DHT22;57622;42.630;23.378;2022-08-19T07:03:48;27.28;48.57
70234;DHT22;57622;42.630;23.378;2022-08-19T07:06:16;27.34;48.00
70234;DHT22;57622;42.630;23.378;2022-08-19T07:08:43;27.42;47.46
70234;DHT22;57622;42.630;23.378;2022-08-19T07:11:10;27.56;47.78
70234;DHT22;57622;42.630;23.378;2022-08-19T07:13:38;27.62;47.37
70234;DHT22;57622;42.630;23.378;2022-08-19T07:16:08;27.60;47.63
70234;DHT22;57622;42.630;23.378;2022-08-19T07:18:35;27.65;47.03
70234;DHT22;57622;42.630;23.378;2022-08-19T07:21:11;27.78;46.71
70234;DHT22;57622;42.630;23.378;2022-08-19T07:23:37;27.80;46.44
70234;DHT22;57622;42.630;23.378;2022-08-19T07:26:13;27.94;46.06
70234;DHT22;57622;42.630;23.378;2022-08-19T07:28:40;28.03;46.00
70234;DHT22;57622;42.630;23.378;2022-08-19T07:31:06;28.14;46.40
70234;DHT22;57622;42.630;23.378;2022-08-19T07:33:33;28.22;45.11
70234;DHT22;57622;42.630;23.378;2022-08-19T07:36:05;28.25;45.19
70234;DHT22;57622;42.630;23.378;2022-08-19T07:38:32;28.38;44.85
70234;DHT22;57622;42.630;23.378;2022-08-19T07:40:58;28.44;45.19
70234;DHT22;57622;42.630;23.378;2022-08-19T07:43:24;28.55;44.54
70234;DHT22;57622;42.630;23.378;2022-08-19T07:45:54;28.72;44.61
70234;DHT22;57622;42.630;23.378;2022-08-19T07:48:26;28.89;44.03
70234;DHT22;57622;42.630;23.378;2022-08-19T07:50:54;29.05;43.86
70234;DHT22;57622;42.630;23.378;2022-08-19T07:53:21;29.13;43.53
70234;DHT22;57622;42.630;23.378;2022-08-19T07:55:47;29.37;43.69
70234;DHT22;57622;42.630;23.378;2022-08-19T07:58:15;29.50;43.44
70234;DHT22;57622;42.630;23.378;2022-08-19T08:00:42;29.63;42.61
70234;DHT22;57622;42.630;23.378;2022-08-19T08:03:08;29.64;42.40
70234;DHT22;57622;42.630;23.378;2022-08-19T08:05:34;29.82;41.81
70234;DHT22;57622;42.630;23.378;2022-08-19T08:08:18;29.81;41.90
70234;DHT22;57622;42.630;23.378;2022-08-19T08:11:03;29.94;41.14
70234;DHT22;57622;42.630;23.378;2022-08-19T08:13:29;30.08;41.85
70234;DHT22;57622;42.630;23.378;2022-08-19T08:15:56;30.22;41.09
70234;DHT22;57622;42.630;23.378;2022-08-19T08:18:23;30.32;41.11
70234;DHT22;57622;42.630;23.378;2022-08-19T08:20:49;30.28;40.92
70234;DHT22;57622;42.630;23.378;2022-08-19T08:23:14;30.47;40.81
70234;DHT22;57622;42.630;23.378;2022-08-19T08:25:55;30.72;39.64
70234;DHT22;57622;42.630;23.378;2022-08-19T08:28:22;30.84;39.13
70234;DHT22;57622;42.630;23.378;2022-08-19T08:30:48;30.97;39.23
70234;DHT22;57622;42.630;23.378;2022-08-19T08:33:18;31.11;39.47
70234;DHT22;57622;42.630;23.378;2022-08-19T08:35:44;31.11;38.96
70234;DHT22;57622;42.630;23.378;2022-08-19T08:38:11;31.18;38.08
70234;DHT22;57622;42.630;23.378;2022-08-19T08:40:47;31.28;37.65
70234;DHT22;57622;42.630;23.378;2022-08-19T08:43:29;31.32;37.24
70234;DHT22;57622;42.630;23.378;2022-08-19T08:51:09;31.76;36.27
70234;DHT22;57622;42.630;23.378;2022-08-19T08:53:37;31.88;35.79
70234;DHT22;57622;42.630;23.378;2022-08-19T08:56:04;32.03;36.30
70234;DHT22;57622;42.630;23.378;2022-08-19T08:59:18;32.24;35.84
70234;DHT22;57622;42.630;23.378;2022-08-19T09:01:44;32.27;34.76
70234;DHT22;57622;42.630;23.378;2022-08-19T09:04:11;32.26;34.39
70234;DHT22;57622;42.630;23.378;2022-08-19T09:09:39;32.53;33.96
70234;DHT22;57622;42.630;23.378;2022-08-19T09:12:33;32.56;33.91
70234;DHT22;57622;42.630;23.378;2022-08-19T09:15:05;32.68;33.50
70234;DHT22;57622;42.630;23.378;2022-08-19T09:17:31;32.81;32.78
70234;DHT22;57622;42.630;23.378;2022-08-19T09:20:02;32.89;32.51
70234;DHT22;57622;42.630;23.378;2022-08-19T09:22:32;32.94;32.61
70234;DHT22;57622;42.630;23.378;2022-08-19T09:24:58;33.02;32.04
70234;DHT22;57622;42.630;23.378;2022-08-19T09:27:25;33.18;31.06
70234;DHT22;57622;42.630;23.378;2022-08-19T09:29:51;33.21;30.84
70234;DHT22;57622;42.630;23.378;2022-08-19T09:32:19;33.36;31.15
70234;DHT22;57622;42.630;23.378;2022-08-19T09:34:45;33.49;30.14
70234;DHT22;57622;42.630;23.378;2022-08-19T09:37:10;33.45;30.11
70234;DHT22;57622;42.630;23.378;2022-08-19T09:39:37;33.46;30.00
70234;DHT22;57622;42.630;23.378;2022-08-19T09:42:03;33.47;30.09
70234;DHT22;57622;42.630;23.378;2022-08-19T09:44:30;33.50;29.53
70234;DHT22;57622;42.630;23.378;2022-08-19T09:46:55;33.54;28.62
70234;DHT22;57622;42.630;23.378;2022-08-19T09:49:21;33.45;28.91
70234;DHT22;57622;42.630;23.378;2022-08-19T09:51:51;33.39;29.44
70234;DHT22;57622;42.630;23.378;2022-08-19T09:54:17;33.54;29.96
70234;DHT22;57622;42.630;23.378;2022-08-19T09:56:43;33.67;29.67
70234;DHT22;57622;42.630;23.378;2022-08-19T09:59:10;33.62;29.20
70234;DHT22;57622;42.630;23.378;2022-08-19T10:01:37;33.30;29.23
70234;DHT22;57622;42.630;23.378;2022-08-19T10:04:02;33.36;29.10
70234;DHT22;57622;42.630;23.378;2022-08-19T10:06:34;33.54;29.39
70234;DHT22;57622;42.630;23.378;2022-08-19T10:09:00;33.63;28.70
70234;DHT22;57622;42.630;23.378;2022-08-19T10:11:26;33.60;28.70
70234;DHT22;57622;42.630;23.378;2022-08-19T10:13:53;33.89;28.97
70234;DHT22;57622;42.630;23.378;2022-08-19T10:16:20;34.10;28.85
70234;DHT22;57622;42.630;23.378;2022-08-19T10:18:47;34.31;28.75
70234;DHT22;57622;42.630;23.378;2022-08-19T10:21:24;34.55;28.33
70234;DHT22;57622;42.630;23.378;2022-08-19T10:23:52;34.73;28.22
70234;DHT22;57622;42.630;23.378;2022-08-19T10:26:23;34.85;29.02
70234;DHT22;57622;42.630;23.378;2022-08-19T10:28:49;34.82;28.56
70234;DHT22;57622;42.630;23.378;2022-08-19T10:31:21;35.13;28.07
70234;DHT22;57622;42.630;23.378;2022-08-19T10:33:48;35.13;28.14
70234;DHT22;57622;42.630;23.378;2022-08-19T10:36:16;35.23;27.73
70234;DHT22;57622;42.630;23.378;2022-08-19T10:38:43;35.29;27.48
70234;DHT22;57622;42.630;23.378;2022-08-19T10:41:31;35.09;26.93
70234;DHT22;57622;42.630;23.378;2022-08-19T10:44:00;35.13;27.08
70234;DHT22;57622;42.630;23.378;2022-08-19T10:46:27;35.23;26.95
70234;DHT22;57622;42.630;23.378;2022-08-19T10:48:54;35.27;27.51
70234;DHT22;57622;42.630;23.378;2022-08-19T10:51:20;35.37;28.71
70234;DHT22;57622;42.630;23.378;2022-08-19T10:54:04;35.10;28.46
70234;DHT22;57622;42.630;23.378;2022-08-19T10:56:30;35.25;28.39
70234;DHT22;57622;42.630;23.378;2022-08-19T10:59:17;35.29;28.18
70234;DHT22;57622;42.630;23.378;2022-08-19T11:01:44;35.29;28.26
70234;DHT22;57622;42.630;23.378;2022-08-19T11:04:09;35.57;27.40
70234;DHT22;57622;42.630;23.378;2022-08-19T11:06:37;35.70;27.18
70234;DHT22;57622;42.630;23.378;2022-08-19T11:09:04;35.77;27.30
70234;DHT22;57622;42.630;23.378;2022-08-19T11:11:30;35.84;27.58
70234;DHT22;57622;42.630;23.378;2022-08-19T11:13:57;35.91;26.71
70234;DHT22;57622;42.630;23.378;2022-08-19T11:16:25;35.99;26.87
70234;DHT22;57622;42.630;23.378;2022-08-19T11:18:57;36.01;27.16
70234;DHT22;57622;42.630;23.378;2022-08-19T11:21:30;35.98;26.90
70234;DHT22;57622;42.630;23.378;2022-08-19T11:24:03;35.96;26.82
70234;DHT22;57622;42.630;23.378;2022-08-19T11:26:30;35.96;27.76
70234;DHT22;57622;42.630;23.378;2022-08-19T11:28:56;36.09;27.52
70234;DHT22;57622;42.630;23.378;2022-08-19T11:31:25;36.01;26.20
70234;DHT22;57622;42.630;23.378;2022-08-19T11:33:51;36.01;26.61
70234;DHT22;57622;42.630;23.378;2022-08-19T11:36:20;35.80;26.64
70234;DHT22;57622;42.630;23.378;2022-08-19T11:38:46;35.81;26.69
70234;DHT22;57622;42.630;23.378;2022-08-19T11:41:15;35.89;27.09
70234;DHT22;57622;42.630;23.378;2022-08-19T11:43:41;36.05;26.80
70234;DHT22;57622;42.630;23.378;2022-08-19T11:46:08;36.18;26.48
70234;DHT22;57622;42.630;23.378;2022-08-19T11:48:35;36.23;26.75
70234;DHT22;57622;42.630;23.378;2022-08-19T11:51:04;36.12;26.46
70234;DHT22;57622;42.630;23.378;2022-08-19T11:53:32;36.01;26.20
70234;DHT22;57622;42.630;23.378;2022-08-19T11:55:58;35.95;26.49
70234;DHT22;57622;42.630;23.378;2022-08-19T11:58:23;35.98;26.90
70234;DHT22;57622;42.630;23.378;2022-08-19T12:00:50;36.28;27.02
70234;DHT22;57622;42.630;23.378;2022-08-19T12:03:16;36.56;27.03
70234;DHT22;57622;42.630;23.378;2022-08-19T12:05:42;36.62;26.66
70234;DHT22;57622;42.630;23.378;2022-08-19T12:08:08;36.56;27.20
70234;DHT22;57622;42.630;23.378;2022-08-19T12:10:34;36.52;26.79
70234;DHT22;57622;42.630;23.378;2022-08-19T12:13:00;36.42;27.00
70234;DHT22;57622;42.630;23.378;2022-08-19T12:15:27;36.25;26.34
70234;DHT22;57622;42.630;23.378;2022-08-19T12:17:54;36.23;26.59
70234;DHT22;57622;42.630;23.378;2022-08-19T12:20:22;36.35;27.05
70234;DHT22;57622;42.630;23.378;2022-08-19T12:22:48;36.23;27.06
70234;DHT22;57622;42.630;23.378;2022-08-19T12:25:14;36.35;27.04
70234;DHT22;57622;42.630;23.378;2022-08-19T12:27:39;36.25;27.22
70234;DHT22;57622;42.630;23.378;2022-08-19T12:30:07;36.28;27.21
70234;DHT22;57622;42.630;23.378;2022-08-19T12:32:33;36.21;26.35
70234;DHT22;57622;42.630;23.378;2022-08-19T12:34:58;36.32;26.67
70234;DHT22;57622;42.630;23.378;2022-08-19T12:37:24;36.37;26.94
70234;DHT22;57622;42.630;23.378;2022-08-19T12:39:49;36.31;26.16
70234;DHT22;57622;42.630;23.378;2022-08-19T12:42:15;36.05;26.83
70234;DHT22;57622;42.630;23.378;2022-08-19T12:44:42;36.19;27.32
70234;DHT22;57622;42.630;23.378;2022-08-19T12:47:09;36.37;26.72
70234;DHT22;57622;42.630;23.378;2022-08-19T12:49:35;36.29;26.81
70234;DHT22;57622;42.630;23.378;2022-08-19T12:52:06;36.28;27.06
70234;DHT22;57622;42.630;23.378;2022-08-19T12:54:33;36.43;26.71
70234;DHT22;57622;42.630;23.378;2022-08-19T12:56:59;36.36;27.00
70234;DHT22;57622;42.630;23.378;2022-08-19T12:59:26;36.59;27.15
70234;DHT22;57622;42.630;23.378;2022-08-19T13:01:51;36.63;26.59
70234;DHT22;57622;42.630;23.378;2022-08-19T13:04:17;36.57;26.62
70234;DHT22;57622;42.630;23.378;2022-08-19T13:06:42;36.53;26.82
70234;DHT22;57622;42.630;23.378;2022-08-19T13:09:08;36.46;27.07
70234;DHT22;57622;42.630;23.378;2022-08-19T13:11:34;36.53;26.83
70234;DHT22;57622;42.630;23.378;2022-08-19T13:14:02;36.40;26.50
70234;DHT22;57622;42.630;23.378;2022-08-19T13:16:28;36.33;26.88
70234;DHT22;57622;42.630;23.378;2022-08-19T13:18:55;36.44;27.17
70234;DHT22;57622;42.630;23.378;2022-08-19T13:21:23;36.47;27.12
70234;DHT22;57622;42.630;23.378;2022-08-19T13:23:50;36.42;26.94
70234;DHT22;57622;42.630;23.378;2022-08-19T13:26:16;36.46;27.42
70234;DHT22;57622;42.630;23.378;2022-08-19T13:28:43;36.21;27.04
70234;DHT22;57622;42.630;23.378;2022-08-19T13:31:31;35.95;27.71
70234;DHT22;57622;42.630;23.378;2022-08-19T13:34:17;35.75;27.48
70234;DHT22;57622;42.630;23.378;2022-08-19T13:36:44;35.95;26.80
70234;DHT22;57622;42.630;23.378;2022-08-19T13:39:10;35.85;26.90
70234;DHT22;57622;42.630;23.378;2022-08-19T13:41:37;35.58;27.13
70234;DHT22;57622;42.630;23.378;2022-08-19T13:44:06;35.58;27.13
70234;DHT22;57622;42.630;23.378;2022-08-19T13:46:31;35.38;27.34
70234;DHT22;57622;42.630;23.378;2022-08-19T13:48:57;35.37;27.81
70234;DHT22;57622;42.630;23.378;2022-08-19T13:51:23;35.53;27.50
70234;DHT22;57622;42.630;23.378;2022-08-19T13:53:48;35.30;27.68
70234;DHT22;57622;42.630;23.378;2022-08-19T13:56:17;34.97;27.89
70234;DHT22;57622;42.630;23.378;2022-08-19T13:58:45;34.88;28.17
70234;DHT22;57622;42.630;23.378;2022-08-19T14:01:10;34.79;28.17
70234;DHT22;57622;42.630;23.378;2022-08-19T14:03:36;34.78;28.49
70234;DHT22;57622;42.630;23.378;2022-08-19T14:06:02;34.92;28.23
70234;DHT22;57622;42.630;23.378;2022-08-19T14:08:29;34.82;28.28
70234;DHT22;57622;42.630;23.378;2022-08-19T14:10:55;34.69;28.14
70234;DHT22;57622;42.630;23.378;2022-08-19T14:13:22;34.58;28.26
70234;DHT22;57622;42.630;23.378;2022-08-19T14:15:48;34.45;28.36
70234;DHT22;57622;42.630;23.378;2022-08-19T14:18:16;34.39;28.41
70234;DHT22;57622;42.630;23.378;2022-08-19T14:20:42;34.28;28.97
70234;DHT22;57622;42.630;23.378;2022-08-19T14:23:08;34.32;28.86
70234;DHT22;57622;42.630;23.378;2022-08-19T14:25:33;34.32;28.89
70234;DHT22;57622;42.630;23.378;2022-08-19T14:28:00;34.42;28.75
70234;DHT22;57622;42.630;23.378;2022-08-19T14:30:36;34.39;28.49
70234;DHT22;57622;42.630;23.378;2022-08-19T14:33:03;34.27;28.80
70234;DHT22;57622;42.630;23.378;2022-08-19T14:35:32;34.20;28.99
70234;DHT22;57622;42.630;23.378;2022-08-19T14:38:05;34.12;29.14
70234;DHT22;57622;42.630;23.378;2022-08-19T14:40:31;34.20;29.42
70234;DHT22;57622;42.630;23.378;2022-08-19T14:43:00;34.18;29.05
70234;DHT22;57622;42.630;23.378;2022-08-19T14:45:35;34.20;28.99
70234;DHT22;57622;42.630;23.378;2022-08-19T14:48:01;34.15;29.01
70234;DHT22;57622;42.630;23.378;2022-08-19T14:50:26;34.17;29.47
70234;DHT22;57622;42.630;23.378;2022-08-19T14:53:01;34.12;29.58
70234;DHT22;57622;42.630;23.378;2022-08-19T14:55:28;34.20;29.59
70234;DHT22;57622;42.630;23.378;2022-08-19T14:57:54;34.12;29.55
70234;DHT22;57622;42.630;23.378;2022-08-19T15:00:19;34.05;29.40
70234;DHT22;57622;42.630;23.378;2022-08-19T15:02:45;33.91;29.60
70234;DHT22;57622;42.630;23.378;2022-08-19T15:05:11;33.93;29.56
70234;DHT22;57622;42.630;23.378;2022-08-19T15:07:38;33.89;29.76
70234;DHT22;57622;42.630;23.378;2022-08-19T15:10:05;33.80;30.00
70234;DHT22;57622;42.630;23.378;2022-08-19T15:12:32;33.90;30.03
70234;DHT22;57622;42.630;23.378;2022-08-19T15:14:59;34.01;29.72
70234;DHT22;57622;42.630;23.378;2022-08-19T15:17:24;33.84;29.90
70234;DHT22;57622;42.630;23.378;2022-08-19T15:19:50;33.83;30.01
70234;DHT22;57622;42.630;23.378;2022-08-19T15:22:15;33.80;30.31
70234;DHT22;57622;42.630;23.378;2022-08-19T15:24:41;33.78;30.26
70234;DHT22;57622;42.630;23.378;2022-08-19T15:27:10;33.63;30.44
70234;DHT22;57622;42.630;23.378;2022-08-19T15:29:36;33.59;30.52